sensor_id;sensor_type;location;lat;lon;timestamp;temperature;humidity
39585;DHT22;25278;53.674;10.014;2022-07-30T03:30:24;17.70;99.90
39585;DHT22;25278;53.674;10.014;2022-07-30T03:32:51;17.80;99.90
39585;DHT22;25278;53.674;10.014;2022-07-30T03:35:17;17.80;99.90
39585;DHT22;25278;53.674;10.014;2022-07-30T03:37:43;17.80;99.90
39585;DHT22;25278;53.674;10.014;2022-07-30T03:40:09;17.70;99.90
39585;DHT22;25278;53.674;10.014;2022-07-30T03:42:34;17.70;99.90
39585;DHT22;25278;53.674;10.014;2022-07-30T03:45:02;17.60;99.90
39585;DHT22;25278;53.674;10.014;2022-07-30T03:47:27;17.60;99.90
39585;DHT22;25278;53.674;10.014;2022-07-30T03:49:56;17.60;99.90
39585;DHT22;25278;53.674;10.014;2022-07-30T03:52:22;17.60;99.90
39585;DHT22;25278;53.674;10.014;2022-07-30T03:54:47;17.50;99.90
39585;DHT22;25278;53.674;10.014;2022-07-30T03:57:13;17.50;99.90
39585;DHT22;25278;53.674;10.014;2022-07-30T03:59:38;17.50;99.90
39585;DHT22;25278;53.674;10.014;2022-07-30T04:02:04;17.40;99.90
39585;DHT22;25278;53.674;10.014;2022-07-30T04:04:30;17.40;99.90
39585;DHT22;25278;53.674;10.014;2022-07-30T04:06:56;17.50;99.90
39585;DHT22;25278;53.674;10.014;2022-07-30T04:09:22;17.40;99.90
39585;DHT22;25278;53.674;10.014;2022-07-30T04:11:47;17.40;99.90
39585;DHT22;25278;53.674;10.014;2022-07-30T04:14:13;17.50;99.90
39585;DHT22;25278;53.674;10.014;2022-07-30T04:16:56;17.50;99.90
39585;DHT22;25278;53.674;10.014;2022-07-30T04:19:25;17.50;99.90
39585;DHT22;25278;53.674;10.014;2022-07-30T04:21:52;17.50;99.90
39585;DHT22;25278;53.674;10.014;2022-07-30T04:24:18;17.60;99.90
39585;DHT22;25278;53.674;10.014;2022-07-30T04:26:44;17.70;99.90
39585;DHT22;25278;53.674;10.014;2022-07-30T04:29:10;17.80;99.90
39585;DHT22;25278;53.674;10.014;2022-07-30T04:31:36;17.80;99.90
39585;DHT22;25278;53.674;10.014;2022-07-30T04:34:04;17.90;99.90
39585;DHT22;25278;53.674;10.014;2022-07-30T04:36:30;18.00;99.90
39585;DHT22;25278;53.674;10.014;2022-07-30T04:38:56;18.10;99.90
39585;DHT22;25278;53.674;10.014;2022-07-30T04:41:21;18.10;99.90
39585;DHT22;25278;53.674;10.014;2022-07-30T04:43:47;18.10;99.90
39585;DHT22;25278;53.674;10.014;2022-07-30T04:46:13;18.10;99.90
39585;DHT22;25278;53.674;10.014;2022-07-30T04:48:38;18.00;99.90
39585;DHT22;25278;53.674;10.014;2022-07-30T04:51:04;18.00;99.90
39585;DHT22;25278;53.674;10.014;2022-07-30T04:53:31;18.00;99.90
39585;DHT22;25278;53.674;10.014;2022-07-30T04:55:58;18.00;99.90
39585;DHT22;25278;53.674;10.014;2022-07-30T04:58:25;18.00;99.90
39585;DHT22;25278;53.674;10.014;2022-07-30T05:00:52;17.90;99.90
39585;DHT22;25278;53.674;10.014;2022-07-30T05:03:18;18.00;99.90
39585;DHT22;25278;53.674;10.014;2022-07-30T05:05:46;18.00;99.90
39585;DHT22;25278;53.674;10.014;2022-07-30T05:08:12;18.00;99.90
39585;DHT22;25278;53.674;10.014;2022-07-30T05:10:37;18.00;99.90
39585;DHT22;25278;53.674;10.014;2022-07-30T05:13:03;18.00;99.90
39585;DHT22;25278;53.674;10.014;2022-07-30T05:15:28;18.00;99.90
39585;DHT22;25278;53.674;10.014;2022-07-30T05:17:54;17.80;99.90
39585;DHT22;25278;53.674;10.014;2022-07-30T05:20:19;17.80;99.90
39585;DHT22;25278;53.674;10.014;2022-07-30T05:22:45;17.80;99.90
39585;DHT22;25278;53.674;10.014;2022-07-30T05:25:10;17.80;99.90
39585;DHT22;25278;53.674;10.014;2022-07-30T05:27:36;17.70;99.90
39585;DHT22;25278;53.674;10.014;2022-07-30T05:30:01;17.70;99.90
39585;DHT22;25278;53.674;10.014;2022-07-30T05:32:27;17.80;99.90
39585;DHT22;25278;53.674;10.014;2022-07-30T05:34:52;17.80;99.90
39585;DHT22;25278;53.674;10.014;2022-07-30T05:37:17;17.70;99.90
39585;DHT22;25278;53.674;10.014;2022-07-30T05:39:43;17.70;99.90
39585;DHT22;25278;53.674;10.014;2022-07-30T05:42:08;17.80;99.90
39585;DHT22;25278;53.674;10.014;2022-07-30T05:44:34;17.80;99.90
39585;DHT22;25278;53.674;10.014;2022-07-30T05:47:00;17.90;99.90
39585;DHT22;25278;53.674;10.014;2022-07-30T05:49:25;17.90;99.90
39585;DHT22;25278;53.674;10.014;2022-07-30T05:51:50;17.90;99.90
39585;DHT22;25278;53.674;10.014;2022-07-30T05:54:16;17.90;99.90
39585;DHT22;25278;53.674;10.014;2022-07-30T05:56:41;17.90;99.90
39585;DHT22;25278;53.674;10.014;2022-07-30T05:59:07;17.80;99.90
39585;DHT22;25278;53.674;10.014;2022-07-30T06:01:32;17.80;99.90
39585;DHT22;25278;53.674;10.014;2022-07-30T06:03:58;17.90;99.90
39585;DHT22;25278;53.674;10.014;2022-07-30T06:06:23;17.90;99.90
39585;DHT22;25278;53.674;10.014;2022-07-30T06:08:49;18.00;99.90
39585;DHT22;25278;53.674;10.014;2022-07-30T06:11:14;18.10;99.90
39585;DHT22;25278;53.674;10.014;2022-07-30T06:13:40;18.20;99.90
39585;DHT22;25278;53.674;10.014;2022-07-30T06:16:05;18.30;99.90
39585;DHT22;25278;53.674;10.014;2022-07-30T06:18:31;18.30;99.90
39585;DHT22;25278;53.674;10.014;2022-07-30T06:20:56;18.20;99.90
39585;DHT22;25278;53.674;10.014;2022-07-30T06:23:22;18.20;99.90
39585;DHT22;25278;53.674;10.014;2022-07-30T06:25:48;18.30;99.90
39585;DHT22;25278;53.674;10.014;2022-07-30T06:28:14;18.20;99.90
39585;DHT22;25278;53.674;10.014;2022-07-30T06:30:39;18.20;99.90
39585;DHT22;25278;53.674;10.014;2022-07-30T06:33:05;18.20;99.90
39585;DHT22;25278;53.674;10.014;2022-07-30T06:35:31;18.20;99.90
39585;DHT22;25278;53.674;10.014;2022-07-30T06:37:56;18.20;99.90
39585;DHT22;25278;53.674;10.014;2022-07-30T06:40:22;18.30;99.90
39585;DHT22;25278;53.674;10.014;2022-07-30T06:42:47;18.30;99.90
39585;DHT22;25278;53.674;10.014;2022-07-30T06:45:13;18.40;99.90
39585;DHT22;25278;53.674;10.014;2022-07-30T06:47:38;18.50;99.90
39585;DHT22;25278;53.674;10.014;2022-07-30T06:50:04;18.60;99.90
39585;DHT22;25278;53.674;10.014;2022-07-30T06:52:29;18.70;99.90
39585;DHT22;25278;53.674;10.014;2022-07-30T06:54:55;18.70;99.90
39585;DHT22;25278;53.674;10.014;2022-07-30T06:57:20;18.60;99.90
39585;DHT22;25278;53.674;10.014;2022-07-30T06:59:46;18.50;99.90
39585;DHT22;25278;53.674;10.014;2022-07-30T07:02:11;18.40;99.90
39585;DHT22;25278;53.674;10.014;2022-07-30T07:04:37;18.40;99.90
39585;DHT22;25278;53.674;10.014;2022-07-30T07:07:02;18.50;99.90
39585;DHT22;25278;53.674;10.014;2022-07-30T07:09:28;18.60;99.90
39585;DHT22;25278;53.674;10.014;2022-07-30T07:11:53;18.70;99.90
39585;DHT22;25278;53.674;10.014;2022-07-30T07:14:18;18.70;99.90
39585;DHT22;25278;53.674;10.014;2022-07-30T07:16:44;18.80;99.90
39585;DHT22;25278;53.674;10.014;2022-07-30T07:19:09;18.80;99.90
39585;DHT22;25278;53.674;10.014;2022-07-30T07:21:35;19.00;99.90
39585;DHT22;25278;53.674;10.014;2022-07-30T07:24:01;19.10;99.90
39585;DHT22;25278;53.674;10.014;2022-07-30T07:26:27;19.20;99.90
39585;DHT22;25278;53.674;10.014;2022-07-30T07:28:53;19.30;99.90
39585;DHT22;25278;53.674;10.014;2022-07-30T07:31:18;19.40;99.90
39585;DHT22;25278;53.674;10.014;2022-07-30T07:33:44;19.40;99.90
39585;DHT22;25278;53.674;10.014;2022-07-30T07:36:11;19.50;99.90
39585;DHT22;25278;53.674;10.014;2022-07-30T07:38:36;19.60;99.90
39585;DHT22;25278;53.674;10.014;2022-07-30T07:41:02;19.40;99.90
39585;DHT22;25278;53.674;10.014;2022-07-30T07:43:27;19.50;99.90
39585;DHT22;25278;53.674;10.014;2022-07-30T07:45:53;19.40;99.90
39585;DHT22;25278;53.674;10.014;2022-07-30T07:48:18;19.40;99.90
39585;DHT22;25278;53.674;10.014;2022-07-30T07:50:44;19.50;99.90
39585;DHT22;25278;53.674;10.014;2022-07-30T07:53:09;19.60;99.90
39585;DHT22;25278;53.674;10.014;2022-07-30T07:55:35;19.70;99.90
39585;DHT22;25278;53.674;10.014;2022-07-30T07:58:00;19.90;99.90
39585;DHT22;25278;53.674;10.014;2022-07-30T08:00:26;20.00;99.90
39585;DHT22;25278;53.674;10.014;2022-07-30T08:02:51;20.20;99.90
39585;DHT22;25278;53.674;10.014;2022-07-30T08:05:17;20.40;99.90
39585;DHT22;25278;53.674;10.014;2022-07-30T08:07:43;20.50;99.90
39585;DHT22;25278;53.674;10.014;2022-07-30T08:10:09;20.70;99.90
39585;DHT22;25278;53.674;10.014;2022-07-30T08:12:36;20.40;99.90
39585;DHT22;25278;53.674;10.014;2022-07-30T08:15:02;20.20;99.90
39585;DHT22;25278;53.674;10.014;2022-07-30T08:17:28;20.20;99.90
39585;DHT22;25278;53.674;10.014;2022-07-30T08:19:56;20.30;99.90
39585;DHT22;25278;53.674;10.014;2022-07-30T08:22:22;20.30;99.90
39585;DHT22;25278;53.674;10.014;2022-07-30T08:24:47;20.30;99.90
39585;DHT22;25278;53.674;10.014;2022-07-30T08:27:13;20.40;99.90
39585;DHT22;25278;53.674;10.014;2022-07-30T08:29:38;20.60;99.90
39585;DHT22;25278;53.674;10.014;2022-07-30T08:32:04;20.60;99.90
39585;DHT22;25278;53.674;10.014;2022-07-30T08:34:29;20.60;99.90
39585;DHT22;25278;53.674;10.014;2022-07-30T08:36:55;20.80;99.90
39585;DHT22;25278;53.674;10.014;2022-07-30T08:39:20;20.80;99.90
39585;DHT22;25278;53.674;10.014;2022-07-30T08:41:46;20.70;99.90
39585;DHT22;25278;53.674;10.014;2022-07-30T08:44:12;20.60;99.90
39585;DHT22;25278;53.674;10.014;2022-07-30T08:46:40;20.80;99.90
39585;DHT22;25278;53.674;10.014;2022-07-30T08:49:05;20.90;99.90
39585;DHT22;25278;53.674;10.014;2022-07-30T08:51:32;21.20;99.90
39585;DHT22;25278;53.674;10.014;2022-07-30T08:53:58;21.30;99.90
39585;DHT22;25278;53.674;10.014;2022-07-30T08:56:26;21.40;99.90
39585;DHT22;25278;53.674;10.014;2022-07-30T08:58:51;21.60;99.90
39585;DHT22;25278;53.674;10.014;2022-07-30T09:01:17;21.70;99.90
39585;DHT22;25278;53.674;10.014;2022-07-30T09:03:42;21.70;99.90
39585;DHT22;25278;53.674;10.014;2022-07-30T09:06:08;21.40;99.90
39585;DHT22;25278;53.674;10.014;2022-07-30T09:08:33;21.30;99.90
39585;DHT22;25278;53.674;10.014;2022-07-30T09:10:59;21.30;99.90
39585;DHT22;25278;53.674;10.014;2022-07-30T09:13:28;21.20;99.90
39585;DHT22;25278;53.674;10.014;2022-07-30T09:15:54;21.30;99.90
39585;DHT22;25278;53.674;10.014;2022-07-30T09:20:52;21.30;99.90
39585;DHT22;25278;53.674;10.014;2022-07-30T09:23:18;21.40;99.90
39585;DHT22;25278;53.674;10.014;2022-07-30T09:25:44;21.70;99.90
39585;DHT22;25278;53.674;10.014;2022-07-30T09:28:10;21.60;99.90
39585;DHT22;25278;53.674;10.014;2022-07-30T09:30:42;21.60;99.90
39585;DHT22;25278;53.674;10.014;2022-07-30T09:33:08;21.70;99.90
39585;DHT22;25278;53.674;10.014;2022-07-30T09:35:34;22.00;99.90
39585;DHT22;25278;53.674;10.014;2022-07-30T09:38:00;22.10;99.90
39585;DHT22;25278;53.674;10.014;2022-07-30T09:40:25;22.30;99.90
39585;DHT22;25278;53.674;10.014;2022-07-30T09:45:52;21.80;99.90
39585;DHT22;25278;53.674;10.014;2022-07-30T09:48:19;21.70;99.90
39585;DHT22;25278;53.674;10.014;2022-07-30T09:50:49;21.80;99.90
39585;DHT22;25278;53.674;10.014;2022-07-30T09:53:15;21.70;99.90
39585;DHT22;25278;53.674;10.014;2022-07-30T09:55:40;21.90;99.90
39585;DHT22;25278;53.674;10.014;2022-07-30T09:58:05;22.10;99.90
39585;DHT22;25278;53.674;10.014;2022-07-30T10:00:32;22.30;99.90
39585;DHT22;25278;53.674;10.014;2022-07-30T10:02:58;22.30;99.90
39585;DHT22;25278;53.674;10.014;2022-07-30T10:05:34;22.40;99.90
39585;DHT22;25278;53.674;10.014;2022-07-30T10:08:00;22.70;99.90
39585;DHT22;25278;53.674;10.014;2022-07-30T10:10:28;22.50;99.90
39585;DHT22;25278;53.674;10.014;2022-07-30T10:13:00;22.20;99.90
39585;DHT22;25278;53.674;10.014;2022-07-30T10:15:27;22.30;99.90
39585;DHT22;25278;53.674;10.014;2022-07-30T10:17:53;22.60;99.90
39585;DHT22;25278;53.674;10.014;2022-07-30T10:20:19;22.60;99.90
39585;DHT22;25278;53.674;10.014;2022-07-30T10:22:44;22.80;99.90
39585;DHT22;25278;53.674;10.014;2022-07-30T10:25:11;23.00;99.90
39585;DHT22;25278;53.674;10.014;2022-07-30T10:27:37;23.10;99.90
39585;DHT22;25278;53.674;10.014;2022-07-30T10:30:03;23.30;99.90
39585;DHT22;25278;53.674;10.014;2022-07-30T10:32:29;23.10;99.90
39585;DHT22;25278;53.674;10.014;2022-07-30T10:34:55;23.00;99.90
39585;DHT22;25278;53.674;10.014;2022-07-30T10:37:21;22.90;99.90
39585;DHT22;25278;53.674;10.014;2022-07-30T10:39:52;22.70;99.90
39585;DHT22;25278;53.674;10.014;2022-07-30T10:42:23;22.50;99.90
39585;DHT22;25278;53.674;10.014;2022-07-30T10:44:54;22.50;99.90
39585;DHT22;25278;53.674;10.014;2022-07-30T10:47:27;22.50;99.90
39585;DHT22;25278;53.674;10.014;2022-07-30T10:50:03;22.40;99.90
39585;DHT22;25278;53.674;10.014;2022-07-30T10:52:48;22.50;99.90
39585;DHT22;25278;53.674;10.014;2022-07-30T10:55:18;22.70;99.90
39585;DHT22;25278;53.674;10.014;2022-07-30T10:57:57;22.60;99.90
39585;DHT22;25278;53.674;10.014;2022-07-30T11:00:22;22.60;99.90
39585;DHT22;25278;53.674;10.014;2022-07-30T11:05:32;23.20;99.90
39585;DHT22;25278;53.674;10.014;2022-07-30T11:08:26;23.60;99.90
39585;DHT22;25278;53.674;10.014;2022-07-30T11:10:43;23.80;99.90
39585;DHT22;25278;53.674;10.014;2022-07-30T11:13:09;24.20;99.90
39585;DHT22;25278;53.674;10.014;2022-07-30T11:15:50;24.20;99.90
39585;DHT22;25278;53.674;10.014;2022-07-30T11:18:17;24.30;99.90
39585;DHT22;25278;53.674;10.014;2022-07-30T11:20:42;24.20;99.90
39585;DHT22;25278;53.674;10.014;2022-07-30T11:25:53;24.00;99.90
39585;DHT22;25278;53.674;10.014;2022-07-30T11:28:38;24.10;99.90
39585;DHT22;25278;53.674;10.014;2022-07-30T11:31:23;24.30;99.90
39585;DHT22;25278;53.674;10.014;2022-07-30T11:33:50;24.50;99.90
39585;DHT22;25278;53.674;10.014;2022-07-30T11:36:15;24.60;99.90
39585;DHT22;25278;53.674;10.014;2022-07-30T11:38:57;24.80;99.90
39585;DHT22;25278;53.674;10.014;2022-07-30T11:41:23;25.10;99.90
39585;DHT22;25278;53.674;10.014;2022-07-30T11:44:17;25.40;99.90
39585;DHT22;25278;53.674;10.014;2022-07-30T11:46:34;25.60;99.90
39585;DHT22;25278;53.674;10.014;2022-07-30T11:49:00;25.50;99.90
39585;DHT22;25278;53.674;10.014;2022-07-30T11:51:38;25.60;99.90
39585;DHT22;25278;53.674;10.014;2022-07-30T11:54:04;25.80;99.90
39585;DHT22;25278;53.674;10.014;2022-07-30T11:56:30;26.00;99.90
39585;DHT22;25278;53.674;10.014;2022-07-30T11:59:00;25.90;99.90
39585;DHT22;25278;53.674;10.014;2022-07-30T12:01:26;26.20;99.90
39585;DHT22;25278;53.674;10.014;2022-07-30T12:03:52;26.40;99.90
39585;DHT22;25278;53.674;10.014;2022-07-30T12:06:17;26.80;99.90
39585;DHT22;25278;53.674;10.014;2022-07-30T12:08:44;27.10;99.90
39585;DHT22;25278;53.674;10.014;2022-07-30T12:11:10;27.40;99.90
39585;DHT22;25278;53.674;10.014;2022-07-30T12:16:08;27.50;99.90
39585;DHT22;25278;53.674;10.014;2022-07-30T12:18:34;28.20;99.90
39585;DHT22;25278;53.674;10.014;2022-07-30T12:21:00;28.00;99.90
39585;DHT22;25278;53.674;10.014;2022-07-30T12:23:27;28.10;99.90
39585;DHT22;25278;53.674;10.014;2022-07-30T12:25:52;28.40;99.90
39585;DHT22;25278;53.674;10.014;2022-07-30T12:30:46;28.50;99.90
39585;DHT22;25278;53.674;10.014;2022-07-30T12:33:12;28.40;99.90
39585;DHT22;25278;53.674;10.014;2022-07-30T12:35:41;28.10;99.90
39585;DHT22;25278;53.674;10.014;2022-07-30T12:38:07;28.10;99.90
39585;DHT22;25278;53.674;10.014;2022-07-30T12:40:32;28.20;99.90
39585;DHT22;25278;53.674;10.014;2022-07-30T12:42:58;28.60;99.90
39585;DHT22;25278;53.674;10.014;2022-07-30T12:45:30;28.80;99.90
39585;DHT22;25278;53.674;10.014;2022-07-30T12:47:57;29.00;99.90
39585;DHT22;25278;53.674;10.014;2022-07-30T12:50:22;28.90;99.90
39585;DHT22;25278;53.674;10.014;2022-07-30T12:52:49;29.00;99.90
39585;DHT22;25278;53.674;10.014;2022-07-30T12:55:17;29.10;99.90
39585;DHT22;25278;53.674;10.014;2022-07-30T12:57:53;29.20;99.90
39585;DHT22;25278;53.674;10.014;2022-07-30T13:00:19;29.20;99.90
39585;DHT22;25278;53.674;10.014;2022-07-30T13:02:45;29.40;99.90
39585;DHT22;25278;53.674;10.014;2022-07-30T13:05:11;29.40;99.90
39585;DHT22;25278;53.674;10.014;2022-07-30T13:07:51;29.50;99.90
39585;DHT22;25278;53.674;10.014;2022-07-30T13:10:16;29.60;99.90
39585;DHT22;25278;53.674;10.014;2022-07-30T13:12:44;29.70;99.90
39585;DHT22;25278;53.674;10.014;2022-07-30T13:15:15;29.70;99.90
39585;DHT22;25278;53.674;10.014;2022-07-30T13:17:41;29.90;99.90
39585;DHT22;25278;53.674;10.014;2022-07-30T13:20:07;30.00;99.90
39585;DHT22;25278;53.674;10.014;2022-07-30T13:22:32;30.70;99.90
39585;DHT22;25278;53.674;10.014;2022-07-30T13:24:58;31.30;99.90
39585;DHT22;25278;53.674;10.014;2022-07-30T13:27:24;31.50;99.90
39585;DHT22;25278;53.674;10.014;2022-07-30T13:29:49;31.50;99.90
39585;DHT22;25278;53.674;10.014;2022-07-30T13:32:15;31.20;99.90
39585;DHT22;25278;53.674;10.014;2022-07-30T13:34:40;31.50;99.90
39585;DHT22;25278;53.674;10.014;2022-07-30T13:37:06;31.40;99.90
39585;DHT22;25278;53.674;10.014;2022-07-30T13:39:31;32.30;99.90
39585;DHT22;25278;53.674;10.014;2022-07-30T13:41:57;33.00;99.90
39585;DHT22;25278;53.674;10.014;2022-07-30T13:44:22;34.00;99.90
39585;DHT22;25278;53.674;10.014;2022-07-30T13:46:48;34.80;99.90
39585;DHT22;25278;53.674;10.014;2022-07-30T13:49:13;35.30;99.90
39585;DHT22;25278;53.674;10.014;2022-07-30T13:51:39;36.20;99.00
39585;DHT22;25278;53.674;10.014;2022-07-30T13:54:04;37.40;97.60
39585;DHT22;25278;53.674;10.014;2022-07-30T13:56:31;38.90;94.90
39585;DHT22;25278;53.674;10.014;2022-07-30T13:58:56;39.40;91.20
39585;DHT22;25278;53.674;10.014;2022-07-30T14:01:22;38.90;88.80
39585;DHT22;25278;53.674;10.014;2022-07-30T14:03:48;39.30;86.90
39585;DHT22;25278;53.674;10.014;2022-07-30T14:06:13;39.00;82.70
39585;DHT22;25278;53.674;10.014;2022-07-30T14:08:39;38.20;83.60
39585;DHT22;25278;53.674;10.014;2022-07-30T14:11:04;37.30;83.90
39585;DHT22;25278;53.674;10.014;2022-07-30T14:13:30;37.00;85.90
39585;DHT22;25278;53.674;10.014;2022-07-30T14:15:55;37.50;85.80
39585;DHT22;25278;53.674;10.014;2022-07-30T14:18:21;38.30;82.00
39585;DHT22;25278;53.674;10.014;2022-07-30T14:20:46;38.10;82.30
39585;DHT22;25278;53.674;10.014;2022-07-30T14:23:13;39.10;80.90
39585;DHT22;25278;53.674;10.014;2022-07-30T14:25:39;38.90;78.80
39585;DHT22;25278;53.674;10.014;2022-07-30T14:28:06;37.70;78.30
39585;DHT22;25278;53.674;10.014;2022-07-30T14:30:31;35.40;81.20
39585;DHT22;25278;53.674;10.014;2022-07-30T14:32:57;34.40;84.00
39585;DHT22;25278;53.674;10.014;2022-07-30T14:35:22;32.50;85.60
39585;DHT22;25278;53.674;10.014;2022-07-30T14:37:48;31.50;87.00
39585;DHT22;25278;53.674;10.014;2022-07-30T14:40:13;31.00;89.80
39585;DHT22;25278;53.674;10.014;2022-07-30T14:42:39;30.40;90.30
39585;DHT22;25278;53.674;10.014;2022-07-30T14:45:08;29.40;91.20
39585;DHT22;25278;53.674;10.014;2022-07-30T14:47:34;28.70;92.60
39585;DHT22;25278;53.674;10.014;2022-07-30T14:49:59;28.60;93.10
39585;DHT22;25278;53.674;10.014;2022-07-30T14:52:24;28.70;94.00
39585;DHT22;25278;53.674;10.014;2022-07-30T14:54:50;28.50;94.70
39585;DHT22;25278;53.674;10.014;2022-07-30T14:57:16;28.30;95.40
39585;DHT22;25278;53.674;10.014;2022-07-30T14:59:41;28.20;96.50
39585;DHT22;25278;53.674;10.014;2022-07-30T15:02:07;28.20;97.30
39585;DHT22;25278;53.674;10.014;2022-07-30T15:04:32;28.30;98.00
39585;DHT22;25278;53.674;10.014;2022-07-30T15:06:58;28.40;97.80
39585;DHT22;25278;53.674;10.014;2022-07-30T15:09:23;28.30;97.70
39585;DHT22;25278;53.674;10.014;2022-07-30T15:11:49;28.40;97.80
39585;DHT22;25278;53.674;10.014;2022-07-30T15:14:14;28.30;97.80
39585;DHT22;25278;53.674;10.014;2022-07-30T15:16:40;28.30;97.40
39585;DHT22;25278;53.674;10.014;2022-07-30T15:19:05;28.50;97.70
39585;DHT22;25278;53.674;10.014;2022-07-30T15:21:30;28.60;98.60
39585;DHT22;25278;53.674;10.014;2022-07-30T15:23:56;28.50;97.90
39585;DHT22;25278;53.674;10.014;2022-07-30T15:26:21;28.70;97.90
39585;DHT22;25278;53.674;10.014;2022-07-30T15:28:47;28.50;97.60
39585;DHT22;25278;53.674;10.014;2022-07-30T15:31:12;28.50;97.40
39585;DHT22;25278;53.674;10.014;2022-07-30T15:33:38;29.70;97.80
39585;DHT22;25278;53.674;10.014;2022-07-30T15:36:07;31.60;96.00
39585;DHT22;25278;53.674;10.014;2022-07-30T15:38:33;34.30;93.60
39585;DHT22;25278;53.674;10.014;2022-07-30T15:40:58;35.40;91.20
39585;DHT22;25278;53.674;10.014;2022-07-30T15:43:24;36.80;89.20
39585;DHT22;25278;53.674;10.014;2022-07-30T15:45:49;38.10;86.30
39585;DHT22;25278;53.674;10.014;2022-07-30T15:48:14;38.80;80.80
39585;DHT22;25278;53.674;10.014;2022-07-30T15:50:40;38.30;78.40
39585;DHT22;25278;53.674;10.014;2022-07-30T15:53:08;38.50;79.90
39585;DHT22;25278;53.674;10.014;2022-07-30T15:55:33;39.20;79.10
39585;DHT22;25278;53.674;10.014;2022-07-30T15:57:59;39.90;76.80
39585;DHT22;25278;53.674;10.014;2022-07-30T16:00:24;39.50;76.60
39585;DHT22;25278;53.674;10.014;2022-07-30T16:02:50;38.70;74.90
39585;DHT22;25278;53.674;10.014;2022-07-30T16:05:16;38.20;76.50
39585;DHT22;25278;53.674;10.014;2022-07-30T16:07:41;38.80;77.30
39585;DHT22;25278;53.674;10.014;2022-07-30T16:10:07;38.90;75.10
39585;DHT22;25278;53.674;10.014;2022-07-30T16:12:33;39.30;73.90
39585;DHT22;25278;53.674;10.014;2022-07-30T16:14:59;40.30;72.20
39585;DHT22;25278;53.674;10.014;2022-07-30T16:17:24;40.90;71.20
39585;DHT22;25278;53.674;10.014;2022-07-30T16:19:49;41.20;70.50
39585;DHT22;25278;53.674;10.014;2022-07-30T16:22:15;40.80;69.90
39585;DHT22;25278;53.674;10.014;2022-07-30T16:24:40;39.20;69.30
39585;DHT22;25278;53.674;10.014;2022-07-30T16:27:06;37.40;71.30
39585;DHT22;25278;53.674;10.014;2022-07-30T16:29:31;37.80;72.60
39585;DHT22;25278;53.674;10.014;2022-07-30T16:31:57;38.70;72.10
39585;DHT22;25278;53.674;10.014;2022-07-30T16:34:22;39.00;71.10
39585;DHT22;25278;53.674;10.014;2022-07-30T16:36:49;38.70;71.20
39585;DHT22;25278;53.674;10.014;2022-07-30T16:39:14;38.00;70.50
39585;DHT22;25278;53.674;10.014;2022-07-30T16:41:40;37.90;71.60
39585;DHT22;25278;53.674;10.014;2022-07-30T16:44:06;38.70;71.30
39585;DHT22;25278;53.674;10.014;2022-07-30T16:46:32;39.30;70.50
39585;DHT22;25278;53.674;10.014;2022-07-30T16:48:57;39.40;70.20
39585;DHT22;25278;53.674;10.014;2022-07-30T16:51:23;39.00;69.80
39585;DHT22;25278;53.674;10.014;2022-07-30T16:53:48;38.50;70.70
39585;DHT22;25278;53.674;10.014;2022-07-30T16:56:14;38.80;71.50
39585;DHT22;25278;53.674;10.014;2022-07-30T16:58:40;38.90;70.50
39585;DHT22;25278;53.674;10.014;2022-07-30T17:01:05;37.40;71.60
39585;DHT22;25278;53.674;10.014;2022-07-30T17:03:30;36.70;72.20
39585;DHT22;25278;53.674;10.014;2022-07-30T17:05:56;36.00;73.30
39585;DHT22;25278;53.674;10.014;2022-07-30T17:08:21;34.90;74.50
39585;DHT22;25278;53.674;10.014;2022-07-30T17:10:47;33.60;77.20
39585;DHT22;25278;53.674;10.014;2022-07-30T17:13:12;33.10;80.60
39585;DHT22;25278;53.674;10.014;2022-07-30T17:15:38;31.70;83.80
39585;DHT22;25278;53.674;10.014;2022-07-30T17:18:03;30.80;86.90
39585;DHT22;25278;53.674;10.014;2022-07-30T17:20:29;30.60;89.10
39585;DHT22;25278;53.674;10.014;2022-07-30T17:22:55;31.60;89.30
39585;DHT22;25278;53.674;10.014;2022-07-30T17:25:21;32.50;87.50
39585;DHT22;25278;53.674;10.014;2022-07-30T17:27:47;33.00;86.50
39585;DHT22;25278;53.674;10.014;2022-07-30T17:30:12;33.30;86.10
39585;DHT22;25278;53.674;10.014;2022-07-30T17:32:38;32.60;86.50
39585;DHT22;25278;53.674;10.014;2022-07-30T17:35:03;32.40;87.70
39585;DHT22;25278;53.674;10.014;2022-07-30T17:37:29;31.60;88.00
39585;DHT22;25278;53.674;10.014;2022-07-30T17:39:55;30.20;90.30
39585;DHT22;25278;53.674;10.014;2022-07-30T17:42:20;29.30;91.70
39585;DHT22;25278;53.674;10.014;2022-07-30T17:44:45;28.50;93.20
39585;DHT22;25278;53.674;10.014;2022-07-30T17:47:11;27.60;95.00
39585;DHT22;25278;53.674;10.014;2022-07-30T17:49:36;26.80;97.30
39585;DHT22;25278;53.674;10.014;2022-07-30T17:52:02;26.10;99.90
39585;DHT22;25278;53.674;10.014;2022-07-30T17:54:28;25.70;99.90
39585;DHT22;25278;53.674;10.014;2022-07-30T17:56:53;25.30;99.90
39585;DHT22;25278;53.674;10.014;2022-07-30T17:59:19;25.00;99.90
39585;DHT22;25278;53.674;10.014;2022-07-30T18:01:44;24.60;99.90
39585;DHT22;25278;53.674;10.014;2022-07-30T18:04:10;24.40;99.90
39585;DHT22;25278;53.674;10.014;2022-07-30T18:06:35;24.20;99.90
39585;DHT22;25278;53.674;10.014;2022-07-30T18:09:02;24.00;99.90
39585;DHT22;25278;53.674;10.014;2022-07-30T18:11:27;23.70;99.90
39585;DHT22;25278;53.674;10.014;2022-07-30T18:13:53;23.60;99.90
39585;DHT22;25278;53.674;10.014;2022-07-30T18:16:21;23.50;99.90
39585;DHT22;25278;53.674;10.014;2022-07-30T18:18:46;23.40;99.90
39585;DHT22;25278;53.674;10.014;2022-07-30T18:21:12;23.30;99.90
39585;DHT22;25278;53.674;10.014;2022-07-30T18:23:37;23.30;99.90
39585;DHT22;25278;53.674;10.014;2022-07-30T18:26:03;23.30;99.90
39585;DHT22;25278;53.674;10.014;2022-07-30T18:28:28;23.30;99.90
39585;DHT22;25278;53.674;10.014;2022-07-30T18:30:54;23.20;99.90
39585;DHT22;25278;53.674;10.014;2022-07-30T18:33:19;23.20;99.90
39585;DHT22;25278;53.674;10.014;2022-07-30T18:35:45;23.20;99.90
39585;DHT22;25278;53.674;10.014;2022-07-30T18:38:10;23.20;99.90
39585;DHT22;25278;53.674;10.014;2022-07-30T18:40:36;23.10;99.90
39585;DHT22;25278;53.674;10.014;2022-07-30T18:43:01;23.10;99.90
39585;DHT22;25278;53.674;10.014;2022-07-30T18:45:28;23.10;99.90
39585;DHT22;25278;53.674;10.014;2022-07-30T18:47:53;23.00;99.90
39585;DHT22;25278;53.674;10.014;2022-07-30T18:50:20;23.00;99.90
39585;DHT22;25278;53.674;10.014;2022-07-30T18:52:46;22.90;99.90
39585;DHT22;25278;53.674;10.014;2022-07-30T18:55:12;22.90;99.90